createdAt,value
2022-10-16T06:15:21.448Z,12.25
2022-10-16T06:25:21.502Z,12.37
2022-10-16T06:35:21.575Z,12.57
2022-10-16T06:45:21.548Z,12.81
2022-10-16T06:55:21.519Z,13.05
2022-10-16T07:05:21.605Z,13.74
2022-10-16T07:15:21.632Z,14.01
2022-10-16T07:25:21.686Z,14.19
2022-10-16T07:35:21.656Z,14.21
2022-10-16T07:45:21.566Z,14.78
2022-10-16T07:55:21.564Z,15.71
2022-10-16T08:05:21.600Z,15.73
2022-10-16T08:15:21.593Z,16.28
2022-10-16T08:25:21.670Z,16.56
2022-10-16T08:35:21.755Z,16.49
2022-10-16T08:45:22.050Z,16.57
2022-10-16T08:55:22.026Z,16.70
2022-10-16T09:05:22.100Z,16.70
2022-10-16T09:15:22.085Z,17.00
2022-10-16T09:25:22.028Z,17.43
2022-10-16T09:35:22.155Z,17.35
2022-10-16T09:45:22.097Z,17.46
2022-10-16T09:55:21.964Z,17.55
2022-10-16T10:05:22.056Z,18.04
2022-10-16T10:15:22.166Z,17.74
2022-10-16T10:25:22.233Z,17.79
2022-10-16T10:35:22.095Z,17.83
2022-10-16T10:45:21.976Z,17.68
2022-10-16T10:55:22.097Z,18.48
2022-10-16T11:05:22.105Z,19.10
2022-10-16T11:15:22.052Z,18.41
2022-10-16T11:25:22.149Z,18.50
2022-10-16T11:35:22.098Z,18.72
2022-10-16T11:45:21.986Z,18.64
2022-10-16T11:55:22.132Z,18.89
2022-10-16T12:05:22.109Z,18.76
2022-10-16T12:15:35.171Z,18.67
2022-10-16T12:25:22.277Z,18.93
2022-10-16T12:35:22.297Z,19.10
2022-10-16T12:45:22.214Z,18.65
2022-10-16T12:55:23.112Z,18.35
2022-10-16T13:05:22.126Z,19.61
2022-10-16T13:15:22.397Z,19.75
2022-10-16T13:25:22.330Z,19.44
2022-10-16T13:35:22.263Z,18.69
2022-10-16T13:45:22.248Z,19.08
2022-10-16T13:55:22.386Z,19.34
2022-10-16T14:05:22.364Z,19.16
2022-10-16T14:15:22.445Z,19.38
2022-10-16T14:25:22.199Z,19.22
2022-10-16T14:35:22.384Z,19.10
2022-10-16T14:45:22.249Z,19.10
2022-10-16T15:05:22.399Z,19.11
2022-10-16T15:15:22.429Z,18.91
2022-10-16T15:25:22.410Z,18.86
2022-10-16T15:35:22.480Z,18.61
2022-10-16T15:45:22.532Z,17.86
2022-10-16T15:55:22.518Z,16.96
2022-10-16T16:05:22.439Z,16.74
2022-10-16T16:15:22.529Z,15.69
2022-10-16T16:25:22.431Z,14.61
2022-10-16T16:35:22.454Z,14.50
2022-10-16T16:45:22.533Z,14.03
2022-10-16T16:55:22.521Z,13.16
2022-10-16T17:05:22.579Z,12.73
2022-10-16T17:15:22.461Z,12.69
2022-10-16T17:25:24.974Z,12.78
2022-10-16T17:35:22.621Z,12.59
2022-10-16T17:45:22.549Z,12.92
2022-10-16T17:55:26.401Z,13.06
2022-10-16T18:05:22.716Z,12.83
2022-10-16T18:15:22.622Z,12.97
2022-10-16T18:25:22.558Z,12.85
2022-10-16T18:35:22.672Z,12.45
2022-10-16T18:45:22.587Z,12.55
2022-10-16T18:55:22.594Z,12.32
2022-10-16T19:05:22.666Z,11.79
2022-10-16T19:15:22.694Z,11.85
